Time;durP1;ratioP1;P1;durP2;ratioP2;P2;SDS_P1;SDS_P2;PMS_P1;PMS_P2;Temp;Humidity;BMP_temperature;BMP_pressure;BME280_temperature;BME280_humidity;BME280_pressure;Samples;Min_cycle;Max_cycle;Signal;HPM_P1;HPM_P2
2021/04/07 00:01:50;;;;;;;11.00;7.53;;;26.10;2201.60;;;;;;4843621;29;20042;-68
2021/04/07 00:04:16;;;;;;;10.23;7.65;;;26.10;2201.60;;;;;;4843452;29;20167;-69
2021/04/07 00:06:42;;;;;;;10.80;7.47;;;26.10;2201.60;;;;;;4843077;29;20544;-68
2021/04/07 00:09:14;;;;;;;12.18;7.43;;;26.10;2201.60;;;;;;4848892;29;20037;-70
2021/04/07 00:11:48;;;;;;;13.63;8.43;;;26.10;2201.60;;;;;;4843476;29;20037;-68
2021/04/07 00:14:14;;;;;;;11.52;7.72;;;26.00;2201.60;;;;;;4842824;29;20037;-69
2021/04/07 00:16:40;;;;;;;10.52;7.35;;;26.00;2201.60;;;;;;4842365;29;20040;-68
2021/04/07 00:19:10;;;;;;;11.88;7.55;;;26.10;2201.60;;;;;;4831764;29;20500;-68
2021/04/07 00:21:40;;;;;;;9.20;6.90;;;26.10;2201.60;;;;;;4831972;29;20044;-68
2021/04/07 00:24:11;;;;;;;11.10;7.03;;;26.00;2201.60;;;;;;4845140;29;20030;-68
2021/04/07 00:26:37;;;;;;;9.68;6.80;;;26.00;2201.60;;;;;;4839937;29;20058;-77
2021/04/07 00:29:03;;;;;;;11.68;7.30;;;26.10;2201.60;;;;;;4842647;29;20488;-68
2021/04/07 00:31:29;;;;;;;9.35;7.00;;;26.00;2201.60;;;;;;4971550;24;20054;-68
2021/04/07 00:33:55;;;;;;;9.65;6.88;;;26.00;2201.60;;;;;;4843318;29;20041;-68
2021/04/07 00:36:20;;;;;;;11.23;6.57;;;25.90;2201.60;;;;;;4842908;29;20038;-68
2021/04/07 00:38:46;;;;;;;8.48;6.43;;;26.00;2201.60;;;;;;4843085;29;20045;-68
2021/04/07 00:41:12;;;;;;;11.65;6.65;;;26.00;2201.60;;;;;;4842309;29;20519;-68
2021/04/07 00:43:38;;;;;;;11.20;6.93;;;26.10;2201.60;;;;;;4838973;29;20060;-68
2021/04/07 00:46:04;;;;;;;10.90;7.22;;;26.10;2201.60;;;;;;4842820;29;20030;-68
2021/04/07 00:48:30;;;;;;;13.25;7.20;;;26.10;2201.60;;;;;;4843026;29;20026;-68
2021/04/07 00:50:56;;;;;;;9.65;6.72;;;26.10;2201.60;;;;;;4841171;29;20032;-68
2021/04/07 00:53:22;;;;;;;10.57;6.40;;;26.20;2201.60;;;;;;4837185;29;20030;-68
2021/04/07 00:55:48;;;;;;;9.82;6.90;;;26.20;2201.60;;;;;;4842040;29;20066;-68
2021/04/07 00:58:16;;;;;;;11.07;7.25;;;26.10;2201.60;;;;;;4836431;29;20026;-69
2021/04/07 01:00:42;;;;;;;11.85;7.82;;;26.00;2201.60;;;;;;4842468;29;20076;-68
2021/04/07 01:03:11;;;;;;;9.25;6.60;;;26.10;2201.60;;;;;;4842113;29;20476;-68
2021/04/07 01:05:36;;;;;;;10.98;7.03;;;26.00;2201.60;;;;;;4843078;29;20034;-68
2021/04/07 01:08:02;;;;;;;15.18;7.00;;;26.00;2201.60;;;;;;4842457;29;20029;-68
2021/04/07 01:10:28;;;;;;;10.57;6.13;;;26.00;2201.60;;;;;;4842046;29;20044;-68
2021/04/07 01:12:54;;;;;;;11.43;6.38;;;26.00;2201.60;;;;;;4842079;29;20030;-68
2021/04/07 01:15:20;;;;;;;9.73;6.35;;;26.00;2201.60;;;;;;4841135;29;20536;-68
2021/04/07 01:17:46;;;;;;;12.60;5.90;;;26.10;2201.60;;;;;;4842166;29;20030;-68
2021/04/07 01:20:14;;;;;;;7.15;5.47;;;26.10;2201.60;;;;;;4842209;29;20075;-68
2021/04/07 01:22:41;;;;;;;8.13;5.25;;;26.10;2201.60;;;;;;4841802;29;20034;-68
2021/04/07 01:25:08;;;;;;;8.88;5.15;;;26.00;2201.60;;;;;;4841724;29;20058;-68
2021/04/07 01:27:36;;;;;;;8.95;5.57;;;26.10;2201.60;;;;;;4842476;29;20073;-68
2021/04/07 01:30:11;;;;;;;10.60;6.03;;;26.10;2201.60;;;;;;4840160;29;20045;-66
2021/04/07 01:32:38;;;;;;;8.07;5.65;;;26.10;2201.60;;;;;;4840888;29;20113;-68
2021/04/07 01:35:06;;;;;;;9.13;5.57;;;26.20;2201.60;;;;;;4841220;29;20022;-68
2021/04/07 01:37:36;;;;;;;8.30;5.75;;;26.10;2201.60;;;;;;4842110;29;20045;-68
2021/04/07 01:40:05;;;;;;;10.95;6.35;;;26.10;2201.60;;;;;;4841595;29;20132;-68
2021/04/07 01:42:31;;;;;;;8.70;5.90;;;26.20;2201.60;;;;;;4842087;29;20046;-68
2021/04/07 01:44:59;;;;;;;9.13;5.85;;;26.20;2201.60;;;;;;4841664;29;20061;-68
2021/04/07 01:47:25;;;;;;;9.02;5.95;;;26.20;2201.60;;;;;;4841871;29;20064;-68
2021/04/07 01:49:51;;;;;;;7.65;5.88;;;26.20;2201.60;;;;;;4841424;29;20513;-68
2021/04/07 01:52:17;;;;;;;8.07;5.78;;;26.20;2201.60;;;;;;4841683;29;20055;-68
2021/04/07 01:54:43;;;;;;;10.52;6.03;;;26.30;2201.60;;;;;;4840414;29;20117;-68
2021/04/07 01:57:08;;;;;;;12.93;6.25;;;26.30;2201.60;;;;;;4840713;29;20477;-68
2021/04/07 01:59:34;;;;;;;9.77;6.25;;;26.30;2201.60;;;;;;4841330;29;20617;-67
2021/04/07 02:02:00;;;;;;;9.95;6.57;;;26.30;2201.60;;;;;;4841182;29;20042;-69
2021/04/07 02:04:27;;;;;;;11.43;6.57;;;26.40;2201.60;;;;;;4841024;29;20044;-68
2021/04/07 02:06:53;;;;;;;8.88;6.38;;;26.50;2201.60;;;;;;4841888;29;20030;-68
2021/04/07 02:09:20;;;;;;;7.65;6.18;;;26.40;2201.60;;;;;;4840966;29;20030;-68
2021/04/07 02:11:47;;;;;;;10.95;7.10;;;26.40;2201.60;;;;;;4841500;29;20038;-69
2021/04/07 02:14:14;;;;;;;8.15;6.03;;;26.40;2201.60;;;;;;4840966;29;20391;-68
2021/04/07 02:16:40;;;;;;;9.32;6.70;;;26.40;2201.60;;;;;;4839894;29;20540;-68
2021/04/07 02:19:10;;;;;;;10.10;7.40;;;26.30;2201.60;;;;;;4841205;29;20065;-68
2021/04/07 02:21:36;;;;;;;10.73;7.15;;;26.20;2201.60;;;;;;4841541;29;20042;-68
2021/04/07 02:24:03;;;;;;;9.52;6.80;;;26.30;2201.60;;;;;;4840962;29;20038;-69
2021/04/07 02:26:29;;;;;;;12.23;7.30;;;26.30;2201.60;;;;;;4841372;29;20022;-67
2021/04/07 02:28:55;;;;;;;9.02;7.28;;;26.20;2201.60;;;;;;4840632;29;20034;-68
2021/04/07 02:31:21;;;;;;;9.05;7.03;;;26.20;2201.60;;;;;;4841011;29;20068;-68
2021/04/07 02:33:46;;;;;;;11.10;7.53;;;26.20;2201.60;;;;;;4841293;29;20033;-67
2021/04/07 02:36:12;;;;;;;10.63;7.40;;;26.20;2201.60;;;;;;4838682;29;20044;-68
2021/04/07 02:38:38;;;;;;;11.02;7.93;;;26.10;2201.60;;;;;;4831642;29;20026;-69
2021/04/07 02:41:03;;;;;;;9.63;7.60;;;26.00;2201.60;;;;;;4841121;29;20553;-68
2021/04/07 02:43:29;;;;;;;9.98;8.10;;;26.00;2201.60;;;;;;4841083;29;20029;-67
2021/04/07 02:45:55;;;;;;;10.38;8.43;;;26.10;2201.60;;;;;;4843847;29;20086;-67
2021/04/07 02:48:20;;;;;;;12.73;7.97;;;26.10;2201.60;;;;;;4844522;29;20510;-68
2021/04/07 02:50:46;;;;;;;12.32;8.52;;;26.00;2201.60;;;;;;4843459;29;20098;-68
2021/04/07 02:53:12;;;;;;;12.93;8.73;;;26.00;2201.60;;;;;;4844426;29;20390;-69
2021/04/07 02:55:37;;;;;;;10.65;7.97;;;26.00;2201.60;;;;;;4844914;29;20066;-68
2021/04/07 02:58:03;;;;;;;10.63;8.07;;;25.90;2201.60;;;;;;4844357;29;20136;-68
2021/04/07 03:00:29;;;;;;;14.15;8.95;;;25.80;2201.60;;;;;;4839163;29;20058;-68
2021/04/07 03:02:54;;;;;;;13.50;8.95;;;25.70;2201.60;;;;;;4840072;29;20529;-66
2021/04/07 03:05:20;;;;;;;11.00;8.50;;;25.60;2201.60;;;;;;4844752;29;20500;-68
2021/04/07 03:07:46;;;;;;;12.50;9.15;;;25.60;2201.60;;;;;;4844485;29;20022;-68
2021/04/07 03:10:12;;;;;;;14.65;9.10;;;25.70;2201.60;;;;;;4844188;29;20033;-68
2021/04/07 03:12:39;;;;;;;15.07;8.55;;;25.70;2201.60;;;;;;4844049;29;20041;-68
2021/04/07 03:15:11;;;;;;;13.35;8.93;;;25.60;2201.60;;;;;;4844346;29;20515;-68
2021/04/07 03:17:37;;;;;;;12.70;8.10;;;25.60;2201.60;;;;;;4847949;29;20029;-68
2021/04/07 03:20:05;;;;;;;12.38;8.63;;;25.60;2201.60;;;;;;4844236;29;20038;-69
2021/04/07 03:22:31;;;;;;;11.05;8.32;;;25.60;2201.60;;;;;;4843846;29;20148;-68
2021/04/07 03:24:57;;;;;;;12.85;9.07;;;25.60;2201.60;;;;;;4844379;29;20069;-68
2021/04/07 03:27:23;;;;;;;13.27;9.65;;;0.90;2201.60;;;;;;4844356;29;20035;-67
2021/04/07 03:29:49;;;;;;;13.05;9.45;;;0.80;2201.60;;;;;;4843515;29;20524;-68
2021/04/07 03:32:14;;;;;;;11.32;8.63;;;0.70;2201.60;;;;;;4842437;29;20493;-68
2021/04/07 03:34:40;;;;;;;17.63;10.05;;;0.70;2201.60;;;;;;4837428;29;20045;-68
2021/04/07 03:37:06;;;;;;;13.73;9.70;;;0.60;2201.60;;;;;;4842488;29;20033;-68
2021/04/07 03:39:32;;;;;;;13.60;8.65;;;0.50;2201.60;;;;;;4843174;29;20105;-68
2021/04/07 03:41:57;;;;;;;12.10;8.75;;;0.50;2201.60;;;;;;4837484;29;20482;-69
2021/04/07 03:44:23;;;;;;;10.88;8.80;;;0.40;2201.60;;;;;;4832687;29;20026;-67
2021/04/07 03:46:55;;;;;;;12.65;8.93;;;0.40;2201.60;;;;;;4843787;29;20033;-69
2021/04/07 03:49:21;;;;;;;11.85;8.90;;;0.40;2201.60;;;;;;4843821;29;20045;-69
2021/04/07 03:51:47;;;;;;;11.35;8.65;;;0.30;2201.60;;;;;;4843417;29;20030;-68
2021/04/07 03:54:13;;;;;;;12.10;9.05;;;0.30;2201.60;;;;;;4843030;29;20041;-67
2021/04/07 03:56:39;;;;;;;11.63;8.77;;;0.30;2201.60;;;;;;4842599;29;20029;-69
2021/04/07 03:59:06;;;;;;;13.23;9.18;;;0.30;2201.60;;;;;;4842831;29;20026;-67
2021/04/07 04:01:32;;;;;;;12.68;8.60;;;0.20;2201.60;;;;;;4842038;29;20128;-68
2021/04/07 04:03:58;;;;;;;14.88;9.00;;;0.20;2201.60;;;;;;4842905;29;20030;-69
2021/04/07 04:06:24;;;;;;;15.82;9.07;;;0.20;2201.60;;;;;;4843804;29;20106;-68
2021/04/07 04:08:49;;;;;;;13.05;8.70;;;0.30;2201.60;;;;;;4842846;29;20018;-67
2021/04/07 04:11:15;;;;;;;12.23;8.85;;;0.20;2201.60;;;;;;4842609;29;20058;-69
2021/04/07 04:13:41;;;;;;;12.02;8.43;;;0.20;2201.60;;;;;;4845085;29;20082;-68
2021/04/07 04:16:07;;;;;;;13.00;9.10;;;0.20;2201.60;;;;;;4843640;29;20527;-68
2021/04/07 04:18:32;;;;;;;10.98;8.98;;;0.30;2201.60;;;;;;4843235;29;20066;-67
2021/04/07 04:20:58;;;;;;;12.38;9.32;;;0.20;2201.60;;;;;;4842041;29;20034;-67
2021/04/07 04:23:24;;;;;;;12.90;9.43;;;0.20;2201.60;;;;;;4843266;29;20045;-69
2021/04/07 04:25:49;;;;;;;15.80;8.75;;;0.30;2201.60;;;;;;4840918;29;20038;-68
2021/04/07 04:28:15;;;;;;;10.73;8.80;;;0.30;2201.60;;;;;;4842920;29;20026;-68
2021/04/07 04:30:41;;;;;;;10.98;8.50;;;0.40;2201.60;;;;;;4842569;29;20074;-67
2021/04/07 04:33:06;;;;;;;14.25;9.20;;;0.40;2201.60;;;;;;4842522;29;20030;-67
2021/04/07 04:35:32;;;;;;;13.27;8.68;;;0.50;2201.60;;;;;;4842977;29;20029;-69
2021/04/07 04:37:58;;;;;;;15.95;8.77;;;0.50;2201.60;;;;;;4841887;29;20061;-68
2021/04/07 04:40:33;;;;;;;12.10;8.73;;;0.50;2201.60;;;;;;4850936;29;20037;-68
2021/04/07 04:43:01;;;;;;;14.07;8.93;;;0.60;2201.60;;;;;;4844861;29;20037;-67
2021/04/07 04:45:27;;;;;;;12.10;8.07;;;0.70;2201.60;;;;;;4841462;29;20555;-68
2021/04/07 04:47:53;;;;;;;9.85;7.70;;;25.60;2201.60;;;;;;4848953;29;20130;-67
2021/04/07 04:50:19;;;;;;;11.00;8.13;;;0.80;2201.60;;;;;;4841542;29;20033;-69
2021/04/07 04:52:44;;;;;;;12.68;8.93;;;0.90;2201.60;;;;;;4842602;29;20025;-71
2021/04/07 04:55:11;;;;;;;12.77;8.40;;;0.90;2201.60;;;;;;4832062;29;20090;-68
2021/04/07 04:57:49;;;;;;;13.02;8.30;;;25.60;2201.60;;;;;;4844874;29;20018;-70
2021/04/07 05:00:15;;;;;;;10.82;7.15;;;26.00;2201.60;;;;;;4839714;29;20046;-69
2021/04/07 05:02:41;;;;;;;10.57;7.28;;;25.90;2201.60;;;;;;4842571;29;20063;-67
2021/04/07 05:05:07;;;;;;;11.02;7.03;;;26.40;2201.60;;;;;;4843288;29;20034;-69
2021/04/07 05:07:32;;;;;;;12.30;7.97;;;26.20;2201.60;;;;;;4846127;29;20030;-70
2021/04/07 05:09:58;;;;;;;12.43;7.22;;;26.40;2201.60;;;;;;4841406;29;20030;-68
2021/04/07 05:12:24;;;;;;;12.88;7.30;;;26.40;2201.60;;;;;;4842313;29;20034;-67
2021/04/07 05:14:50;;;;;;;9.18;6.43;;;52.00;2227.20;;;;;;4842548;29;20469;-69
2021/04/07 05:17:17;;;;;;;10.70;8.20;;;76.80;2227.20;;;;;;4842452;29;20018;-69
2021/04/07 05:19:43;;;;;;;9.43;6.22;;;102.40;2227.20;;;;;;4837864;29;20370;-69
2021/04/07 05:22:09;;;;;;;12.45;8.23;;;102.60;2227.20;;;;;;4841767;29;20030;-69
2021/04/07 05:24:36;;;;;;;8.43;5.35;;;103.10;2227.20;;;;;;4841476;29;20525;-70
2021/04/07 05:27:02;;;;;;;10.23;6.70;;;128.00;2252.80;;;;;;4834508;29;20079;-70
2021/04/07 05:29:28;;;;;;;8.40;6.47;;;153.80;2252.80;;;;;;4835697;29;20026;-67
2021/04/07 05:31:53;;;;;;;9.75;8.13;;;128.40;2252.80;;;;;;4839379;29;20077;-70
2021/04/07 05:34:23;;;;;;;8.13;6.30;;;154.40;2252.80;;;;;;4845390;29;20037;-68
2021/04/07 05:36:48;;;;;;;10.55;6.65;;;128.90;2252.80;;;;;;4841494;29;20101;-67
2021/04/07 05:39:14;;;;;;;9.80;6.47;;;128.70;2252.80;;;;;;4840828;29;20109;-68
2021/04/07 05:41:40;;;;;;;10.18;6.05;;;154.10;2252.80;;;;;;4841386;29;20038;-69
2021/04/07 05:44:05;;;;;;;10.82;5.90;;;128.90;2252.80;;;;;;4840553;29;20164;-71
2021/04/07 05:46:33;;;;;;;10.88;6.20;;;;;;;;;;4841558;29;20029;-69
2021/04/07 05:48:59;;;;;;;11.40;6.85;;;;;;;;;;4825456;29;20129;-67
2021/04/07 05:51:25;;;;;;;10.30;6.82;;;;;;;;;;4839692;29;20022;-68
2021/04/07 05:53:53;;;;;;;30.00;12.75;;;;;;;;;;4841071;29;20457;-67
2021/04/07 05:56:19;;;;;;;18.45;10.38;;;;;;;;;;4840878;29;20163;-69
2021/04/07 05:58:46;;;;;;;14.07;8.73;;;;;;;;;;4841341;29;20045;-70
2021/04/07 06:01:12;;;;;;;16.73;9.85;;;;;;;;;;4834653;29;20818;-71
2021/04/07 06:03:38;;;;;;;13.77;8.00;;;;;;;;;;4840937;29;20054;-71
2021/04/07 06:06:07;;;;;;;15.82;10.10;;;;;;;;;;4839724;29;20114;-70
2021/04/07 06:08:33;;;;;;;50.90;32.35;;;;;;;;;;4837378;29;20034;-68
2021/04/07 06:11:00;;;;;;;15.88;11.75;;;;;;;;;;4835511;29;20038;-68
2021/04/07 06:13:26;;;;;;;15.13;11.40;;;;;;;;;;4840190;29;20022;-70
2021/04/07 06:15:53;;;;;;;15.10;13.30;;;;;;;;;;4843434;29;20048;-65
2021/04/07 06:18:19;;;;;;;22.20;19.67;;;;;;;;;;4840808;29;20022;-71
2021/04/07 06:20:50;;;;;;;30.65;24.63;;;;;;;;;;4837969;29;20053;-68
2021/04/07 06:23:26;;;;;;;12.85;10.90;;;;;;;;;;4842495;29;20022;-67
2021/04/07 06:26:12;;;;;;;11.23;8.73;;;;;;;;;;4840991;29;20041;-69
2021/04/07 06:28:38;;;;;;;10.23;7.57;;;;;;;;;;4837829;29;20041;-66
2021/04/07 06:31:04;;;;;;;9.82;8.05;;;;;;;;;;4838938;29;20060;-68
2021/04/07 06:33:33;;;;;;;9.65;6.72;;;;;;;;;;4836804;29;20027;-68
2021/04/07 06:36:03;;;;;;;9.88;7.70;;;;;;;;;;4839578;29;20038;-66
2021/04/07 06:38:30;;;;;;;12.27;8.73;;;;;;;;;;4837295;29;20037;-65
2021/04/07 06:40:56;;;;;;;12.60;8.15;;;;;;;;;;4840605;29;20038;-66
2021/04/07 06:43:25;;;;;;;11.25;8.23;;;;;;;;;;4841013;29;20414;-68
2021/04/07 06:45:51;;;;;;;9.27;7.28;;;;;;;;;;4841248;29;20092;-68
2021/04/07 06:48:20;;;;;;;9.55;7.40;;;;;;;;;;4841010;29;20022;-69
2021/04/07 06:50:47;;;;;;;12.50;9.10;;;;;;;;;;4840736;29;20049;-68
2021/04/07 06:53:14;;;;;;;12.63;8.10;;;;;;;;;;4840582;29;20034;-68
2021/04/07 06:55:40;;;;;;;13.00;8.75;;;;;;;;;;4841070;29;20033;-68
2021/04/07 06:58:10;;;;;;;10.95;7.88;;;;;;;;;;4840928;29;20044;-68
2021/04/07 07:00:38;;;;;;;19.10;12.20;;;;;;;;;;4828619;29;20049;-69
2021/04/07 07:03:08;;;;;;;15.02;9.20;;;;;;;;;;4841815;29;20034;-69
2021/04/07 07:05:36;;;;;;;12.48;8.23;;;179.80;2022.40;;;;;;4852234;29;20190;-70
2021/04/07 07:08:31;;;;;;;8.68;7.65;;;179.50;2048.00;;;;;;4854104;29;20010;-71
2021/04/07 07:10:57;;;;;;;9.95;7.53;;;;;;;;;;4798986;29;20058;-70
2021/04/07 07:13:25;;;;;;;11.25;7.50;;;154.30;2201.60;;;;;;4801048;29;20043;-70
2021/04/07 07:15:53;;;;;;;10.75;7.40;;;180.10;2099.20;;;;;;4800798;29;20103;-71
2021/04/07 07:18:20;;;;;;;10.75;7.47;;;205.00;1996.80;;;;;;4799290;29;20043;-70
2021/04/07 07:20:45;;;;;;;9.35;6.90;;;205.50;1971.20;;;;;;4799584;29;20035;-70
2021/04/07 07:23:21;;;;;;;11.55;7.30;;;230.50;1894.40;;;;;;4799432;29;20509;-69
2021/04/07 07:26:04;;;;;;;11.93;8.23;;;231.00;1843.20;;;;;;4802002;29;20069;-70
2021/04/07 07:28:39;;;;;;;9.50;7.47;;;;;;;;;;4796591;29;20039;-69
2021/04/07 07:31:21;;;;;;;11.63;8.23;;;;;;;;;;4796555;29;20055;-66
2021/04/07 07:33:47;;;;;;;17.05;11.40;;;;;;;;;;4801834;29;20081;-70
2021/04/07 07:36:14;;;;;;;30.40;15.07;;;;;;;;;;4801517;29;20067;-70
2021/04/07 07:38:50;;;;;;;21.58;10.88;;;;;;;;;;4803145;29;20508;-70
2021/04/07 07:41:23;;;;;;;17.08;10.70;;;;;;;;;;4807275;29;20111;-71
2021/04/07 07:43:59;;;;;;;12.13;8.27;;;;;;;;;;4786973;29;20042;-72
2021/04/07 07:46:31;;;;;;;9.32;7.50;;;;;;;;;;4803179;29;20039;-70
2021/04/07 07:48:58;;;;;;;12.07;8.50;;;;;;;;;;4840694;29;20052;-70
2021/04/07 07:51:27;;;;;;;10.77;7.80;;;;;;;;;;4843524;29;20111;-71
2021/04/07 07:54:25;;;;;;;10.63;7.82;;;;;;;;;;4841619;29;20068;-72
2021/04/07 07:56:52;;;;;;;9.70;7.40;;;;;;;;;;4814396;29;20059;-70
2021/04/07 07:59:29;;;;;;;10.98;7.25;;;;;;;;;;4813910;29;20054;-66
2021/04/07 08:01:55;;;;;;;17.23;9.20;;;;;;;;;;4807450;29;20058;-68
2021/04/07 08:04:21;;;;;;;18.90;7.55;;;;;;;;;;4822544;29;20038;-69
2021/04/07 08:06:47;;;;;;;11.02;7.97;;;;;;;;;;4820982;29;20118;-67
2021/04/07 08:09:14;;;;;;;15.07;9.15;;;;;;;;;;4821697;29;20041;-68
2021/04/07 08:11:43;;;;;;;17.60;8.95;;;;;;;;;;4822538;29;20026;-68
2021/04/07 08:14:17;;;;;;;11.48;8.75;;;;;;;;;;4825524;29;20054;-68
2021/04/07 08:16:44;;;;;;;10.55;8.00;;;205.60;1945.60;;;;;;4821296;29;20091;-66
2021/04/07 08:19:11;;;;;;;14.27;8.85;;;205.10;1971.20;;;;;;4822049;29;20109;-68
2021/04/07 08:22:05;;;;;;;13.65;9.00;;;204.90;2022.40;;;;;;4822749;29;20071;-66
2021/04/07 08:24:32;;;;;;;11.60;8.05;;;204.80;2022.40;;;;;;4811570;29;20565;-66
2021/04/07 08:27:10;;;;;;;15.63;9.30;;;179.70;2073.60;;;;;;4818387;29;20171;-68
2021/04/07 08:29:37;;;;;;;16.45;10.23;;;179.90;2124.80;;;;;;4820889;29;20030;-67
2021/04/07 08:32:03;;;;;;;12.82;9.20;;;179.90;2099.20;;;;;;4808778;29;20050;-67
2021/04/07 08:34:29;;;;;;;126.22;42.90;;;180.10;2099.20;;;;;;4838941;29;20037;-67
2021/04/07 08:36:55;;;;;;;17.65;9.65;;;204.80;2124.80;;;;;;4842741;29;20030;-66
2021/04/07 08:39:20;;;;;;;15.95;9.65;;;205.00;2048.00;;;;;;4842927;29;20396;-68
2021/04/07 08:41:48;;;;;;;13.55;8.82;;;205.10;2022.40;;;;;;4842672;29;20110;-68
2021/04/07 08:44:16;;;;;;;14.43;8.63;;;205.30;2048.00;;;;;;4842558;29;20104;-68
2021/04/07 08:46:54;;;;;;;17.08;8.73;;;205.10;1996.80;;;;;;4842891;29;20496;-67
2021/04/07 08:49:42;;;;;;;13.88;8.90;;;205.10;1894.40;;;;;;4840562;29;20026;-68
2021/04/07 08:52:18;;;;;;;13.73;8.68;;;205.30;1945.60;;;;;;4830974;29;20026;-67
2021/04/07 08:54:57;;;;;;;13.43;7.78;;;205.40;1996.80;;;;;;4843257;29;20030;-67
2021/04/07 08:57:36;;;;;;;10.15;7.40;;;205.30;1868.80;;;;;;4842090;29;20125;-66
2021/04/07 09:00:24;;;;;;;11.82;7.50;;;205.40;1817.60;;;;;;4841113;29;20053;-68
2021/04/07 09:02:58;;;;;;;14.10;7.88;;;205.70;1766.40;;;;;;4842682;29;20077;-67
2021/04/07 09:05:44;;;;;;;11.55;7.45;;;230.70;1689.60;;;;;;4840836;29;20026;-67
2021/04/07 09:08:15;;;;;;;10.90;7.50;;;230.60;1715.20;;;;;;4832590;29;20604;-66
2021/04/07 09:10:43;;;;;;;9.18;6.70;;;230.60;1664.00;;;;;;4827860;29;20527;-68
2021/04/07 09:13:15;;;;;;;11.65;6.85;;;230.40;1664.00;;;;;;4824417;29;20060;-67
2021/04/07 09:15:55;;;;;;;10.32;6.70;;;230.40;1689.60;;;;;;4826613;29;20034;-66
2021/04/07 09:18:32;;;;;;;9.73;7.10;;;230.50;1664.00;;;;;;4840248;29;20036;-68
2021/04/07 09:21:00;;;;;;;9.77;6.82;;;230.50;1664.00;;;;;;4837925;29;20452;-67
2021/04/07 09:23:36;;;;;;;9.77;6.57;;;230.80;1587.20;;;;;;4841241;29;20052;-67
2021/04/07 09:26:14;;;;;;;10.48;5.78;;;230.70;1561.60;;;;;;4837518;29;20453;-68
2021/04/07 09:28:45;;;;;;;14.07;6.20;;;230.60;1536.00;;;;;;4835529;29;20120;-67
2021/04/07 09:31:15;;;;;;;13.35;5.93;;;230.90;1510.40;;;;;;4841237;29;20142;-68
2021/04/07 09:33:46;;;;;;;8.45;5.68;;;231.10;1510.40;;;;;;4841598;29;20033;-67
2021/04/07 09:36:13;;;;;;;17.80;9.57;;;231.00;1510.40;;;;;;4842003;29;20042;-67
2021/04/07 09:38:53;;;;;;;11.18;6.20;;;230.70;1561.60;;;;;;4841210;29;20411;-68
2021/04/07 09:41:23;;;;;;;11.73;6.53;;;230.70;1536.00;;;;;;4846504;29;20077;-66
2021/04/07 09:43:49;;;;;;;10.30;5.65;;;230.60;1433.60;;;;;;4842133;29;20038;-66
2021/04/07 09:46:16;;;;;;;13.63;7.85;;;230.40;1382.40;;;;;;4841768;29;20026;-66
2021/04/07 09:48:46;;;;;;;10.48;5.95;;;230.70;1459.20;;;;;;4841819;29;20082;-68
2021/04/07 09:51:30;;;;;;;9.82;5.10;;;230.80;1433.60;;;;;;4841077;29;20090;-68
2021/04/07 09:54:35;;;;;;;12.98;7.03;;;230.80;1408.00;;;;;;4822764;29;20026;-67
2021/04/07 09:57:04;;;;;;;;;;;230.90;1433.60;;;;;;4784122;30;20054;-68
2021/04/07 09:59:37;;;;;;;7.07;5.10;;;230.80;1433.60;;;;;;4784357;30;19936;-69
2021/04/07 10:02:11;;;;;;;8.32;5.05;;;230.90;1433.60;;;;;;4784216;30;20175;-67
2021/04/07 10:04:43;;;;;;;7.70;5.13;;;231.00;1408.00;;;;;;4784095;30;20089;-68
2021/04/07 10:07:28;;;;;;;9.52;5.88;;;256.00;1408.00;;;;;;4784928;30;20039;-67
2021/04/07 10:10:00;;;;;;;6.97;5.22;;;256.30;1408.00;;;;;;4790726;30;20051;-68
2021/04/07 10:12:29;;;;;;;6.72;4.63;;;;;;;;;;4784655;29;20566;-72
2021/04/07 10:14:59;;;;;;;6.40;4.70;;;;;;;;;;4784231;29;20533;-71
2021/04/07 10:17:29;;;;;;;8.55;4.72;;;;;;;;;;4784734;30;20073;-69
2021/04/07 10:19:55;;;;;;;11.10;5.28;;;;;;;;;;4783900;30;20547;-71
2021/04/07 10:22:26;;;;;;;9.30;5.43;;;;;;;;;;4788370;30;20036;-71
2021/04/07 10:24:57;;;;;;;9.55;4.90;;;;;;;;;;4784922;29;20055;-69
2021/04/07 10:27:24;;;;;;;7.00;4.60;;;;;;;;;;4769485;30;20075;-69
2021/04/07 10:29:50;;;;;;;7.45;4.22;;;;;;;;;;4784051;30;20402;-69
2021/04/07 10:32:38;;;;;;;8.48;4.60;;;;;;;;;;4802682;29;20067;-69
2021/04/07 10:35:05;;;;;;;10.13;5.05;;;;;;;;;;4839039;29;20038;-69
2021/04/07 10:37:31;;;;;;;7.22;4.70;;;;;;;;;;4840656;29;20037;-68
2021/04/07 10:39:57;;;;;;;7.78;4.90;;;;;;;;;;4840606;29;20180;-70
2021/04/07 10:42:23;;;;;;;6.60;4.63;;;;;;;;;;4841161;29;20041;-71
2021/04/07 10:45:03;;;;;;;7.43;4.50;;;230.90;2048.00;;;;;;4840982;29;20026;-69
2021/04/07 10:47:37;;;;;;;10.40;6.03;;;230.70;1356.80;;;;;;4840515;29;20022;-68
2021/04/07 10:50:04;;;;;;;10.88;6.20;;;230.50;1331.20;;;;;;4840580;29;20034;-68
2021/04/07 10:52:36;;;;;;;16.77;8.48;;;230.40;1356.80;;;;;;4840456;29;20524;-69
2021/04/07 10:55:10;;;;;;;18.88;9.02;;;205.70;1356.80;;;;;;4840731;29;20066;-68
2021/04/07 10:57:39;;;;;;;26.70;11.93;;;230.50;1356.80;;;;;;4841164;29;20018;-69
2021/04/07 11:00:08;;;;;;;12.48;6.78;;;230.70;1356.80;;;;;;4830735;29;20141;-66
2021/04/07 11:02:44;;;;;;;8.57;4.85;;;230.70;1408.00;;;;;;4838322;29;20026;-69
2021/04/07 11:05:18;;;;;;;7.20;4.22;;;230.60;1356.80;;;;;;4840462;29;20038;-68
2021/04/07 11:07:44;;;;;;;7.55;4.57;;;230.50;1356.80;;;;;;4844323;29;20040;-70
2021/04/07 11:10:12;;;;;;;8.88;4.50;;;230.40;1356.80;;;;;;4844486;29;20409;-68
2021/04/07 11:12:40;;;;;;;8.13;4.35;;;205.60;1356.80;;;;;;4844291;29;20034;-70
2021/04/07 11:15:13;;;;;;;8.90;4.72;;;205.50;1382.40;;;;;;4839378;29;20170;-70
2021/04/07 11:17:51;;;;;;;10.45;4.78;;;205.70;1356.80;;;;;;4844259;29;20073;-70
2021/04/07 11:20:17;;;;;;;8.48;4.07;;;230.70;1305.60;;;;;;4847417;29;20042;-68
2021/04/07 11:22:43;;;;;;;6.97;4.13;;;231.10;1254.40;;;;;;4831118;29;20528;-70
2021/04/07 11:25:09;;;;;;;10.95;3.92;;;;;;;;;;4831237;29;20030;-68
2021/04/07 11:27:36;;;;;;;7.40;4.72;;;;;;;;;;4844182;29;20025;-67
2021/04/07 11:30:03;;;;;;;9.55;4.45;;;;;;;;;;4843246;29;20121;-69
2021/04/07 11:32:32;;;;;;;6.07;4.15;;;;;;;;;;4844180;29;20038;-68
2021/04/07 11:35:13;;;;;;;8.30;4.28;;;230.80;1920.00;;;;;;4844139;29;20049;-67
2021/04/07 11:45:39;;;;;;;7.25;3.90;;;205.40;1356.80;;;;;;4831887;29;20274;-67
2021/04/07 11:48:08;;;;;;;8.07;4.50;;;205.50;1305.60;;;;;;4843689;29;20034;-68
2021/04/07 11:50:33;;;;;;;8.73;5.10;;;205.70;1331.20;;;;;;4838725;29;20094;-68
2021/04/07 11:52:59;;;;;;;6.82;3.95;;;230.50;1331.20;;;;;;4835594;29;20038;-68
2021/04/07 11:55:25;;;;;;;8.60;5.57;;;230.50;1331.20;;;;;;4843362;29;20026;-68
2021/04/07 11:57:50;;;;;;;9.40;5.57;;;230.50;1356.80;;;;;;4842988;29;20041;-73
2021/04/07 12:00:17;;;;;;;8.38;4.90;;;230.50;1356.80;;;;;;4843283;29;20121;-67
2021/04/07 12:02:44;;;;;;;7.18;3.92;;;230.40;1356.80;;;;;;4843479;29;20034;-67
2021/04/07 12:05:13;;;;;;;17.20;10.05;;;205.70;1356.80;;;;;;4843691;29;20033;-68
2021/04/07 12:07:39;;;;;;;27.83;17.55;;;205.70;1382.40;;;;;;4841663;29;20030;-69
2021/04/07 12:10:06;;;;;;;18.40;7.97;;;230.40;1356.80;;;;;;4840559;29;20488;-67
2021/04/07 12:12:32;;;;;;;9.63;5.95;;;230.40;1356.80;;;;;;4841384;29;20058;-68
2021/04/07 12:15:10;;;;;;;13.48;7.30;;;230.40;1331.20;;;;;;4852163;29;20030;-68
2021/04/07 12:17:35;;;;;;;12.25;6.10;;;205.70;1331.20;;;;;;4842897;29;20441;-69
2021/04/07 12:20:02;;;;;;;8.00;4.60;;;230.40;1305.60;;;;;;4842589;29;20121;-68
2021/04/07 12:22:37;;;;;;;8.45;4.80;;;230.50;1280.00;;;;;;4848285;29;20041;-68
2021/04/07 12:25:03;;;;;;;7.03;3.67;;;230.50;1280.00;;;;;;4832359;29;20038;-68
2021/04/07 12:27:34;;;;;;;9.77;4.35;;;230.50;1228.80;;;;;;4847916;29;20037;-68
2021/04/07 12:30:10;;;;;;;10.27;5.90;;;230.50;1305.60;;;;;;4850186;29;20090;-68
2021/04/07 12:32:37;;;;;;;9.63;5.82;;;230.80;1280.00;;;;;;4843080;29;20576;-70
2021/04/07 12:35:08;;;;;;;10.32;5.43;;;231.20;1305.60;;;;;;4842303;29;20042;-68
2021/04/07 12:37:34;;;;;;;9.05;5.22;;;231.30;1254.40;;;;;;4843119;29;20034;-69
2021/04/07 12:39:59;;;;;;;11.15;5.53;;;256.20;1228.80;;;;;;4842595;29;20075;-70
2021/04/07 12:42:27;;;;;;;16.40;7.82;;;;;;;;;;4842742;29;20771;-70
2021/04/07 12:44:54;;;;;;;5.55;4.03;;;;;;;;;;4842320;29;20078;-72
2021/04/07 12:47:20;;;;;;;7.57;4.50;;;;;;;;;;4842774;29;20109;-74
2021/04/07 12:49:46;;;;;;;16.67;9.43;;;;;;;;;;4842369;29;20030;-70
2021/04/07 12:52:12;;;;;;;6.72;4.22;;;;;;;;;;4842335;29;20037;-67
2021/04/07 12:54:38;;;;;;;9.00;5.10;;;230.90;1971.20;;;;;;4842464;29;20032;-67
2021/04/07 12:57:05;;;;;;;7.00;4.72;;;230.60;1305.60;;;;;;4842353;29;20033;-68
2021/04/07 12:59:31;;;;;;;7.63;4.97;;;230.70;1305.60;;;;;;4842180;29;20045;-67
2021/04/07 13:01:56;;;;;;;9.90;4.55;;;230.60;1331.20;;;;;;4841120;29;20042;-68